Cold Bay, AK (99571)

1:12 AM AKDT on July 25, 2016 (GMT -0800)
Cold Bay | | Change Station

Elev 102 ft 55.22 °N, 162.73 °W | Updated 19 minutes ago

Light Rain
Light Rain Mist
51 °F
Feels Like 51 °F
N
16
Wind Variable Wind from West

Today
High -- | Low -- °F
--% Chance of Precip.
Yesterday
High -- | Low -- °F
Precip. -- in
Pressure 29.72 in
Visibility 2.0 miles
Clouds Overcast 300 ft
Dew Point 51 °F
Humidity 100%
Rainfall 0.02 in
Snow Depth Not available.
6:47 AM 11:05 PM
Waning Gibbous, 68% visible
METAR PACD 250853Z 26014KT 2SM -RA BR OVC003 11/11 A2972 RMK AO2 RAB11 SLP063 P0002 60003 T01060106 401170106 56006 $
Pressure 29.72 in
Visibility 2.0 miles
Clouds Overcast 300 ft
Dew Point 51 °F
Humidity 100%
Rainfall 0.02 in
Snow Depth Not available.
6:47 AM 11:05 PM
Waning Gibbous, 68% visible
METAR PACD 250853Z 26014KT 2SM -RA BR OVC003 11/11 A2972 RMK AO2 RAB11 SLP063 P0002 60003 T01060106 401170106 56006 $

10-Day Weather Forecast

Almanac

Astronomy

Jul. 25, 2016 Rise Set
Actual Time
Civil Twilight
Nautical Twilight
Astronomical Twilight
Moon
Length of Visible Light
Length of Day
Tomorrow will be .
, % of the Moon is Illuminated

Today's Extremes

State Highs State Lows

Community

WunderPhotos

Upload Photos

1,927,278 photos uploaded!

WunderBlog® & News

Nearby

Air Quality

  Air Quality AQ Index Pollutant
Not available.

Snow Depth

Station Depth Elevation

Earthquake Activity

City Distance Mag. Time & Date
Minimum magnitude displayed is 2.5.

Coastal Water Temperatures

Place Temperature

Stations

Nearby Weather Stations

Station Location Temp. Windchill Dew Point Humidity Wind Precip. Elev Updated Type
                   

Watches & Warnings

There are currently no watches in effect.